createdAt,value
2014-09-04T00:00:31.256Z,18.39
2014-09-04T00:01:35.945Z,18.49
2014-09-04T00:02:40.635Z,18.14
2014-09-04T00:03:45.308Z,17.75
2014-09-04T00:04:49.998Z,17.88
2014-09-04T00:05:53.986Z,18
2014-09-04T00:06:58.676Z,18.18
2014-09-04T00:08:03.349Z,18.42
2014-09-04T00:09:08.335Z,18.46
2014-09-04T00:10:13.009Z,18.53
2014-09-04T00:11:17.698Z,18.34
2014-09-04T00:12:22.372Z,18.49
2014-09-04T00:13:27.360Z,18.58
2014-09-04T00:14:32.034Z,18.59
2014-09-04T00:15:36.723Z,18.57
2014-09-04T00:16:41.398Z,18.34
2014-09-04T00:17:46.087Z,18.35
2014-09-04T00:18:50.761Z,18.18
2014-09-04T00:19:55.450Z,18.13
2014-09-04T00:21:00.124Z,18.14
2014-09-04T00:22:04.814Z,18.33
2014-09-04T00:23:09.800Z,18.34
2014-09-04T00:24:14.489Z,18.49
2014-09-04T00:25:19.163Z,18.45
2014-09-04T00:26:23.852Z,18.49
2014-09-04T00:27:28.823Z,18.52
2014-09-04T00:28:33.513Z,18.5
2014-09-04T00:29:38.187Z,18.55
2014-09-04T00:30:43.173Z,18.27
2014-09-04T00:31:47.862Z,18.36
2014-09-04T00:32:52.537Z,18.27
2014-09-04T00:33:57.227Z,18.34
2014-09-04T00:35:01.902Z,18.13
2014-09-04T00:36:06.591Z,18.16
2014-09-04T00:37:11.562Z,18.19
2014-09-04T00:38:16.251Z,18.29
2014-09-04T00:39:20.925Z,18.37
2014-09-04T00:40:25.614Z,18.34
2014-09-04T00:41:30.585Z,18.25
2014-09-04T00:42:35.273Z,18.3
2014-09-04T00:43:39.963Z,18.14
2014-09-04T00:44:44.949Z,18.11
2014-09-04T00:45:49.625Z,18.3
2014-09-04T00:46:54.314Z,18.41
2014-09-04T00:47:58.989Z,18.07
2014-09-04T00:49:03.678Z,18.1
2014-09-04T00:50:08.352Z,18.06
2014-09-04T00:51:13.041Z,18.17
2014-09-04T00:52:17.715Z,18.06
2014-09-04T00:53:22.701Z,18.08
2014-09-04T00:54:27.375Z,18.09
2014-09-04T00:55:32.065Z,18.27
2014-09-04T00:56:37.035Z,18.04
2014-09-04T00:57:41.725Z,18.08
2014-09-04T00:58:46.711Z,18.21
2014-09-04T00:59:51.385Z,18.26
2014-09-04T01:00:56.077Z,18.21
2014-09-04T01:02:01.047Z,18.28
2014-09-04T01:03:05.736Z,18.44
2014-09-04T01:04:10.722Z,18.16
2014-09-04T01:05:15.693Z,18.26
2014-09-04T01:06:20.383Z,18.14
2014-09-04T01:07:25.057Z,18.25
2014-09-04T01:08:30.044Z,18.32
2014-09-04T01:09:34.718Z,18.31
2014-09-04T01:10:39.407Z,18.34
2014-09-04T01:11:44.395Z,18.38
2014-09-04T01:12:49.067Z,18.12
2014-09-04T01:13:54.054Z,18.3
2014-09-04T01:14:59.040Z,18.08
2014-09-04T01:16:03.715Z,18.19
2014-09-04T01:17:08.404Z,18.35
2014-09-04T01:18:13.077Z,18.34
2014-09-04T01:19:17.767Z,18.26
2014-09-04T01:20:22.441Z,18.33
2014-09-04T01:21:27.130Z,18.08
2014-09-04T01:22:31.804Z,18.24
2014-09-04T01:23:36.509Z,18.32
2014-09-04T01:24:41.199Z,18.48
2014-09-04T01:25:45.904Z,18.5
2014-09-04T01:26:50.580Z,18.44
2014-09-04T01:27:55.269Z,18.43
2014-09-04T01:28:59.943Z,18.52
2014-09-04T01:30:04.632Z,18.28
2014-09-04T01:31:09.602Z,18.4
2014-09-04T01:32:14.292Z,18.55
2014-09-04T01:33:18.965Z,18.52
2014-09-04T01:34:23.655Z,18.46
2014-09-04T01:35:28.626Z,18.46
2014-09-04T01:36:33.316Z,18.45
2014-09-04T01:37:38.286Z,18.38
2014-09-04T01:38:42.976Z,18.34
2014-09-04T01:39:47.947Z,18.27
2014-09-04T01:40:52.637Z,18.43
2014-09-04T01:41:57.608Z,18.52
2014-09-04T01:43:02.297Z,18.52
2014-09-04T01:44:07.284Z,18.66
2014-09-04T01:45:11.958Z,18.4
2014-09-04T01:46:16.943Z,18.48
2014-09-04T01:47:21.618Z,18.3
2014-09-04T01:48:26.604Z,18.38
2014-09-04T01:49:31.294Z,18.31
2014-09-04T01:50:35.968Z,18.36
2014-09-04T01:51:40.657Z,18.26
2014-09-04T01:52:45.628Z,18.34
2014-09-04T01:53:50.615Z,18.38
2014-09-04T01:54:55.602Z,18.15
2014-09-04T01:56:00.588Z,18.26
2014-09-04T01:57:05.262Z,18.41
2014-09-04T01:58:09.951Z,18.41
2014-09-04T01:59:14.625Z,18.27
2014-09-04T02:00:19.315Z,18.28
2014-09-04T02:01:24.004Z,18.16
2014-09-04T02:02:27.991Z,18.18
2014-09-04T02:03:32.976Z,18.32
2014-09-04T02:04:37.650Z,18.31
2014-09-04T02:05:42.636Z,18.03
2014-09-04T02:06:47.310Z,18.14
2014-09-04T02:07:52.002Z,18.24
2014-09-04T02:08:56.675Z,17.94
2014-09-04T02:10:01.662Z,18.04
2014-09-04T02:11:06.633Z,18.3
2014-09-04T02:12:11.322Z,18.36
2014-09-04T02:13:15.324Z,18.4
2014-09-04T02:14:20.295Z,18.4
2014-09-04T02:15:24.984Z,18.07
2014-09-04T02:16:29.955Z,18.24
2014-09-04T02:17:34.941Z,18.21
2014-09-04T02:18:39.615Z,18.3
2014-09-04T02:19:44.305Z,18.38
2014-09-04T02:20:48.979Z,18.18
2014-09-04T02:21:53.669Z,17.84
2014-09-04T02:22:58.640Z,17.98
2014-09-04T02:24:03.329Z,18.1
2014-09-04T02:25:08.003Z,18.26
2014-09-04T02:26:12.693Z,18.15
2014-09-04T02:27:17.382Z,18.24
2014-09-04T02:28:22.056Z,18.1
2014-09-04T02:29:27.042Z,18.13
2014-09-04T02:30:32.012Z,18.1
2014-09-04T02:31:36.999Z,18.19
2014-09-04T02:32:41.969Z,18.29
2014-09-04T02:33:46.659Z,18.38
2014-09-04T02:34:51.630Z,18.42
2014-09-04T02:35:56.321Z,18.42
2014-09-04T02:37:00.995Z,18.53
2014-09-04T02:38:05.981Z,18.5
2014-09-04T02:39:10.654Z,18.36
2014-09-04T02:40:15.344Z,18.45
2014-09-04T02:41:20.018Z,18.5
2014-09-04T02:42:24.707Z,18.43
2014-09-04T02:43:29.381Z,18.24
2014-09-04T02:44:34.367Z,18.36
2014-09-04T02:45:39.338Z,18.46
2014-09-04T02:46:44.043Z,18.47
2014-09-04T02:47:48.717Z,18.46
2014-09-04T02:48:53.409Z,18.48
2014-09-04T02:49:58.083Z,18.54
2014-09-04T02:51:02.772Z,18.47
2014-09-04T02:52:07.462Z,18.32
2014-09-04T02:53:12.135Z,18.4
2014-09-04T02:54:16.825Z,18.5
2014-09-04T02:55:21.499Z,18.53
2014-09-04T02:56:26.188Z,18.5
2014-09-04T02:57:30.862Z,18.66
2014-09-04T02:58:35.553Z,18.63
2014-09-04T02:59:40.226Z,18.6
2014-09-04T03:00:45.213Z,18.5
2014-09-04T03:01:49.887Z,18.3
2014-09-04T03:02:53.888Z,18.4
2014-09-04T03:03:58.562Z,18.28
2014-09-04T03:05:03.236Z,18.39
2014-09-04T03:06:07.925Z,18.4
2014-09-04T03:07:12.911Z,18.42
2014-09-04T03:08:17.883Z,18.37
2014-09-04T03:09:22.572Z,18.35
2014-09-04T03:10:27.542Z,18.49
2014-09-04T03:11:32.529Z,18.53
2014-09-04T03:12:37.812Z,18.52
2014-09-04T03:13:42.485Z,18.44
2014-09-04T03:14:47.471Z,18.57
2014-09-04T03:15:52.460Z,18.5
2014-09-04T03:16:57.135Z,18.54
2014-09-04T03:18:01.824Z,18.32
2014-09-04T03:19:06.795Z,18.44
2014-09-04T03:20:11.483Z,18.46
2014-09-04T03:21:16.157Z,18.51
2014-09-04T03:22:20.847Z,18.58
2014-09-04T03:23:25.521Z,18.36
2014-09-04T03:24:30.210Z,18.42
2014-09-04T03:25:34.884Z,18.4
2014-09-04T03:26:39.573Z,18.39
2014-09-04T03:27:44.247Z,18.34
2014-09-04T03:28:48.937Z,18.37
2014-09-04T03:29:53.910Z,18.46
2014-09-04T03:30:58.599Z,18.55
2014-09-04T03:32:03.570Z,18.51
2014-09-04T03:33:08.258Z,18.6
2014-09-04T03:34:13.245Z,18.54
2014-09-04T03:35:18.215Z,18.54
2014-09-04T03:36:22.905Z,18.49
2014-09-04T03:37:27.579Z,18.6
2014-09-04T03:38:32.565Z,18.53
2014-09-04T03:39:37.255Z,18.59
2014-09-04T03:40:41.929Z,18.44
2014-09-04T03:41:46.618Z,18.34
2014-09-04T03:42:51.292Z,18.46
2014-09-04T03:43:55.997Z,18.51
2014-09-04T03:45:00.672Z,18.41
2014-09-04T03:46:05.361Z,18.32
2014-09-04T03:47:10.035Z,18.44
2014-09-04T03:48:14.725Z,18.33
2014-09-04T03:49:19.414Z,18.36
2014-09-04T03:50:24.088Z,18.43
2014-09-04T03:51:28.778Z,18.13
2014-09-04T03:52:33.747Z,18.26
2014-09-04T03:53:38.734Z,18.28
2014-09-04T03:54:43.705Z,18.15
2014-09-04T03:55:48.394Z,18.25
2014-09-04T03:56:52.380Z,18.33
2014-09-04T03:57:57.070Z,18.27
2014-09-04T03:59:02.043Z,18.14
2014-09-04T04:00:06.732Z,18.2
2014-09-04T04:01:10.734Z,18.31
2014-09-04T04:02:15.408Z,18.32
2014-09-04T04:03:20.098Z,18.38
2014-09-04T04:04:25.068Z,18.41
2014-09-04T04:05:29.758Z,18.23
2014-09-04T04:06:34.446Z,18.32
2014-09-04T04:07:39.136Z,18.14
2014-09-04T04:08:43.810Z,18.03
2014-09-04T04:09:48.499Z,18.1
2014-09-04T04:10:53.173Z,18.23
2014-09-04T04:11:58.161Z,18.15
2014-09-04T04:13:02.835Z,18.13
2014-09-04T04:14:07.525Z,18.28
2014-09-04T04:15:11.512Z,18.26
2014-09-04T04:16:16.201Z,18.26
2014-09-04T04:17:21.187Z,18.32
2014-09-04T04:18:25.861Z,18.05
2014-09-04T04:19:30.550Z,18.26
2014-09-04T04:20:35.537Z,18.36
2014-09-04T04:21:40.211Z,18.35
2014-09-04T04:22:44.900Z,18.35
2014-09-04T04:23:49.871Z,18.4
2014-09-04T04:24:54.560Z,18.43
2014-09-04T04:25:59.236Z,18.4
2014-09-04T04:27:03.926Z,18.31
2014-09-04T04:28:08.599Z,18.42
2014-09-04T04:29:13.585Z,18.4
2014-09-04T04:30:18.275Z,18.48
2014-09-04T04:31:23.261Z,18.48
2014-09-04T04:32:27.935Z,18.42
2014-09-04T04:33:32.624Z,18.44
2014-09-04T04:34:37.298Z,18.46
2014-09-04T04:35:42.285Z,18.38
2014-09-04T04:36:47.255Z,18.3
2014-09-04T04:37:51.945Z,18.25
2014-09-04T04:38:56.931Z,18.29
2014-09-04T04:40:01.606Z,18.38
2014-09-04T04:41:06.296Z,18.44
2014-09-04T04:42:11.266Z,18.34
2014-09-04T04:43:15.956Z,18.32
2014-09-04T04:44:20.630Z,18.36
2014-09-04T04:45:25.615Z,18.46
2014-09-04T04:46:30.305Z,18.44
2014-09-04T04:47:34.978Z,18.51
2014-09-04T04:48:39.668Z,18.52
2014-09-04T04:49:44.342Z,18.51
2014-09-04T04:50:49.031Z,18.4
2014-09-04T04:51:53.705Z,18.3
2014-09-04T04:52:58.397Z,18.31
2014-09-04T04:54:03.071Z,18.39
2014-09-04T04:55:07.761Z,18.46
2014-09-04T04:56:12.435Z,18.37
2014-09-04T04:57:17.420Z,18.5
2014-09-04T04:58:22.392Z,18.48
2014-09-04T04:59:27.081Z,18.43
2014-09-04T05:00:31.754Z,18.44
2014-09-04T05:01:36.445Z,18.28
2014-09-04T05:02:41.119Z,18.37
2014-09-04T05:03:46.104Z,18.4
2014-09-04T05:04:50.795Z,18.45
2014-09-04T05:05:54.781Z,18.51
2014-09-04T05:06:59.471Z,18.48
2014-09-04T05:08:04.144Z,18.33
2014-09-04T05:09:08.834Z,18.33
2014-09-04T05:10:13.508Z,18.11
2014-09-04T05:11:18.197Z,18.12
2014-09-04T05:12:23.184Z,18.16
2014-09-04T05:13:27.857Z,18.12
2014-09-04T05:14:32.859Z,18.12
2014-09-04T05:15:37.532Z,18.13
2014-09-04T05:16:42.222Z,18.23
2014-09-04T05:17:46.896Z,18.34
2014-09-04T05:18:51.585Z,18.38
2014-09-04T05:19:56.261Z,18.42
2014-09-04T05:21:00.951Z,18.32
2014-09-04T05:22:05.625Z,18.35
2014-09-04T05:23:10.330Z,18.34
2014-09-04T05:24:15.019Z,18.01
2014-09-04T05:25:19.693Z,18.22
2014-09-04T05:26:24.383Z,18.3
2014-09-04T05:27:29.056Z,18.32
2014-09-04T05:28:33.746Z,18.32
2014-09-04T05:29:38.434Z,18.1
2014-09-04T05:30:43.405Z,18.26
2014-09-04T05:31:48.392Z,18.29
2014-09-04T05:32:53.378Z,18.32
2014-09-04T05:33:58.052Z,18.14
2014-09-04T05:35:02.743Z,18.15
2014-09-04T05:36:07.432Z,18.36
2014-09-04T05:37:12.106Z,18.43
2014-09-04T05:38:16.795Z,18.57
2014-09-04T05:39:21.469Z,18.49
2014-09-04T05:40:26.159Z,18.41
2014-09-04T05:41:31.129Z,18.13
2014-09-04T05:42:35.819Z,18.36
2014-09-04T05:43:40.493Z,18.32
2014-09-04T05:44:45.182Z,18.37
2014-09-04T05:45:49.872Z,18.44
2014-09-04T05:46:54.546Z,18.36
2014-09-04T05:47:59.236Z,18.46
2014-09-04T05:49:03.911Z,18.44
2014-09-04T05:50:08.599Z,18.54
2014-09-04T05:51:13.274Z,18.54
2014-09-04T05:52:17.964Z,18.41
2014-09-04T05:53:22.638Z,18.36
2014-09-04T05:54:27.625Z,18.41
2014-09-04T05:55:32.315Z,18.24
2014-09-04T05:56:37.300Z,18.12
2014-09-04T05:57:41.975Z,18.23
2014-09-04T05:58:46.663Z,18.36
2014-09-04T05:59:51.337Z,18.43
2014-09-04T06:00:56.324Z,18.04
2014-09-04T06:02:01.013Z,18.22
2014-09-04T06:03:05.687Z,18.2
2014-09-04T06:04:10.376Z,18.42
2014-09-04T06:05:15.050Z,18.54
2014-09-04T06:06:19.740Z,18.47
2014-09-04T06:07:24.429Z,18.43
2014-09-04T06:08:29.103Z,18.4
2014-09-04T06:09:33.793Z,18.27
2014-09-04T06:10:37.794Z,18.14
2014-09-04T06:11:42.781Z,18.23
2014-09-04T06:12:47.455Z,18.34
2014-09-04T06:13:52.145Z,18.32
2014-09-04T06:14:56.819Z,18.28
2014-09-04T06:16:00.821Z,18.26
2014-09-04T06:17:05.808Z,18.5
2014-09-04T06:18:10.801Z,18.48
2014-09-04T06:19:15.531Z,18.57
2014-09-04T06:20:20.540Z,18.47
2014-09-04T06:21:25.566Z,18.26
2014-09-04T06:22:30.591Z,17.97
2014-09-04T06:23:35.290Z,18.07
2014-09-04T06:24:39.995Z,18.23
2014-09-04T06:25:44.683Z,18.33
2014-09-04T06:26:49.386Z,18.5
2014-09-04T06:27:54.382Z,18.29
2014-09-04T06:28:59.077Z,18.35
2014-09-04T06:30:03.772Z,18.19
2014-09-04T06:31:08.452Z,18.42
2014-09-04T06:32:13.146Z,18.47
2014-09-04T06:33:17.823Z,18.47
2014-09-04T06:34:22.515Z,18.52
2014-09-04T06:35:27.191Z,18.62
2014-09-04T06:36:31.882Z,18.49
2014-09-04T06:37:36.558Z,18.64
2014-09-04T06:38:41.248Z,18.28
2014-09-04T06:39:46.219Z,18.22
2014-09-04T06:40:50.910Z,18.48
2014-09-04T06:41:55.600Z,18.37
2014-09-04T06:43:00.276Z,18.49
2014-09-04T06:44:04.966Z,18.54
2014-09-04T06:45:09.639Z,18.59
2014-09-04T06:46:14.329Z,18.3
2014-09-04T06:47:19.003Z,18.3
2014-09-04T06:48:23.692Z,18.4
2014-09-04T06:49:28.366Z,18.44
2014-09-04T06:50:33.353Z,18.36
2014-09-04T06:51:38.026Z,18.48
2014-09-04T06:52:42.716Z,18.24
2014-09-04T06:53:47.390Z,18.32
2014-09-04T06:54:52.079Z,18.26
2014-09-04T06:55:56.769Z,18.26
2014-09-04T06:57:01.741Z,18.39
2014-09-04T06:58:06.430Z,18.34
2014-09-04T06:59:11.104Z,18.4
2014-09-04T07:00:15.793Z,18.44
2014-09-04T07:01:20.483Z,18.47
2014-09-04T07:02:25.453Z,18.53
2014-09-04T07:03:30.144Z,18.53
2014-09-04T07:04:34.818Z,18.59
2014-09-04T07:05:39.508Z,18.61
2014-09-04T07:06:44.181Z,18.25
2014-09-04T07:07:49.168Z,18.43
2014-09-04T07:08:54.154Z,18.1
2014-09-04T07:09:58.844Z,18.24
2014-09-04T07:11:03.518Z,18.37
2014-09-04T07:12:08.504Z,18.48
2014-09-04T07:13:13.178Z,18.62
2014-09-04T07:14:17.867Z,18.56
2014-09-04T07:15:22.540Z,18.46
2014-09-04T07:16:27.230Z,18.54
2014-09-04T07:17:32.217Z,18.59
2014-09-04T07:18:36.890Z,18.6
2014-09-04T07:19:41.579Z,18.67
2014-09-04T07:20:46.253Z,18.76
2014-09-04T07:21:51.240Z,18.68
2014-09-04T07:22:55.929Z,18.64
2014-09-04T07:24:00.605Z,18.72
2014-09-04T07:25:05.591Z,18.77
2014-09-04T07:26:10.265Z,18.62
2014-09-04T07:27:14.955Z,18.52
2014-09-04T07:28:19.629Z,18.62
2014-09-04T07:29:24.318Z,18.53
2014-09-04T07:30:28.992Z,18.41
2014-09-04T07:31:33.682Z,18.33
2014-09-04T07:32:38.355Z,18.42
2014-09-04T07:33:43.342Z,18.58
2014-09-04T07:34:48.327Z,18.58
2014-09-04T07:35:53.298Z,18.7
2014-09-04T07:36:57.987Z,18.7
2014-09-04T07:38:02.663Z,18.74
2014-09-04T07:39:07.650Z,18.69
2014-09-04T07:40:12.324Z,18.68
2014-09-04T07:41:17.311Z,18.77
2014-09-04T07:42:21.985Z,18.82
2014-09-04T07:43:26.673Z,18.74
2014-09-04T07:44:31.364Z,18.8
2014-09-04T07:45:36.335Z,18.87
2014-09-04T07:46:41.024Z,18.85
2014-09-04T07:47:45.698Z,18.92
2014-09-04T07:48:50.387Z,18.99
2014-09-04T07:49:55.077Z,18.81
2014-09-04T07:51:00.063Z,18.88
2014-09-04T07:52:04.752Z,18.93
2014-09-04T07:53:09.427Z,18.93
2014-09-04T07:54:14.115Z,18.88
2014-09-04T07:55:18.789Z,18.89
2014-09-04T07:56:23.480Z,18.91
2014-09-04T07:57:28.153Z,18.71
2014-09-04T07:58:33.139Z,18.77
2014-09-04T07:59:37.828Z,18.87
2014-09-04T08:00:42.502Z,18.84
2014-09-04T08:01:47.192Z,18.82
2014-09-04T08:02:51.866Z,18.85
2014-09-04T08:03:56.555Z,18.72
2014-09-04T08:05:01.543Z,18.62
2014-09-04T08:06:06.217Z,18.68
2014-09-04T08:07:10.907Z,18.65
2014-09-04T08:08:15.580Z,18.8
2014-09-04T08:09:20.567Z,18.84
2014-09-04T08:10:25.240Z,18.81
2014-09-04T08:11:29.930Z,18.84
2014-09-04T08:12:34.901Z,18.72
2014-09-04T08:13:39.592Z,18.93
2014-09-04T08:14:44.265Z,18.86
2014-09-04T08:15:48.955Z,18.74
2014-09-04T08:16:53.645Z,18.87
2014-09-04T08:17:58.630Z,18.92
2014-09-04T08:19:03.602Z,18.95
2014-09-04T08:20:08.587Z,19.17
2014-09-04T08:21:13.277Z,18.97
2014-09-04T08:22:18.247Z,18.81
2014-09-04T08:23:22.937Z,18.63
2014-09-04T08:24:27.908Z,18.9
2014-09-04T08:25:32.597Z,19.01
2014-09-04T08:26:37.583Z,19.12
2014-09-04T08:27:42.554Z,19.05
2014-09-04T08:28:47.244Z,19.04
2014-09-04T08:29:51.918Z,19.11
2014-09-04T08:30:56.607Z,18.91
2014-09-04T08:32:01.578Z,18.94
2014-09-04T08:33:06.269Z,18.92
2014-09-04T08:34:10.943Z,19.01
2014-09-04T08:35:15.633Z,18.94
2014-09-04T08:36:20.307Z,19.1
2014-09-04T08:37:24.996Z,19.02
2014-09-04T08:38:29.670Z,19.06
2014-09-04T08:39:34.359Z,19.13
2014-09-04T08:40:39.345Z,19.19
2014-09-04T08:41:44.019Z,18.98
2014-09-04T08:42:48.725Z,19.14
2014-09-04T08:43:53.696Z,19.18
2014-09-04T08:44:58.386Z,18.97
2014-09-04T08:46:03.060Z,19.02
2014-09-04T08:47:07.749Z,19.15
2014-09-04T08:48:12.422Z,19.12
2014-09-04T08:49:17.127Z,19.24
2014-09-04T08:50:21.801Z,19.36
2014-09-04T08:51:26.491Z,18.95
2014-09-04T08:52:31.165Z,18.77
2014-09-04T08:53:35.854Z,19.08
2014-09-04T08:54:40.841Z,18.83
2014-09-04T08:55:45.513Z,18.62
2014-09-04T08:56:50.203Z,18.91
2014-09-04T08:57:54.892Z,19.1
2014-09-04T08:58:59.568Z,19.21
2014-09-04T09:00:04.556Z,19
2014-09-04T09:01:09.229Z,19.21
2014-09-04T09:02:13.902Z,18.88
2014-09-04T09:03:18.592Z,18.91
2014-09-04T09:04:23.281Z,19.13
2014-09-04T09:05:27.955Z,19.24
2014-09-04T09:06:32.645Z,19.28
2014-09-04T09:07:37.350Z,19.36
2014-09-04T09:08:41.337Z,19.36
2014-09-04T09:09:46.027Z,19.58
2014-09-04T09:10:50.716Z,19.46
2014-09-04T09:11:55.390Z,19.38
2014-09-04T09:13:00.377Z,19.29
2014-09-04T09:14:05.066Z,19.43
2014-09-04T09:15:10.037Z,19.32
2014-09-04T09:16:15.023Z,19.36
2014-09-04T09:17:19.697Z,19.13
2014-09-04T09:18:24.683Z,19.1
2014-09-04T09:19:29.654Z,19.08
2014-09-04T09:20:34.343Z,19.22
2014-09-04T09:21:39.032Z,19.43
2014-09-04T09:22:43.722Z,19.33
2014-09-04T09:23:48.396Z,19.46
2014-09-04T09:24:53.085Z,19.45
2014-09-04T09:25:57.072Z,19.12
2014-09-04T09:27:01.764Z,19.18
2014-09-04T09:28:06.453Z,19.14
2014-09-04T09:29:11.127Z,19.12
2014-09-04T09:30:15.816Z,19.2
2014-09-04T09:31:20.490Z,19.24
2014-09-04T09:32:25.179Z,19.46
2014-09-04T09:33:30.165Z,19.44
2014-09-04T09:34:34.838Z,19.53
2014-09-04T09:35:39.528Z,19.44
2014-09-04T09:36:44.202Z,19.56
2014-09-04T09:37:48.891Z,19.7
2014-09-04T09:38:53.565Z,19.7
2014-09-04T09:39:58.256Z,19.55
2014-09-04T09:41:02.929Z,19.72
2014-09-04T09:42:07.918Z,19.61
2014-09-04T09:43:12.903Z,19.72
2014-09-04T09:44:17.593Z,19.8
2014-09-04T09:45:22.268Z,19.78
2014-09-04T09:46:27.254Z,19.71
2014-09-04T09:47:32.240Z,19.78
2014-09-04T09:48:36.929Z,19.79
2014-09-04T09:49:41.901Z,19.89
2014-09-04T09:50:46.590Z,19.99
2014-09-04T09:51:51.280Z,19.76
2014-09-04T09:52:55.954Z,19.97
2014-09-04T09:54:00.941Z,19.82
2014-09-04T09:55:05.629Z,19.84
2014-09-04T09:56:10.303Z,19.9
2014-09-04T09:57:15.290Z,19.84
2014-09-04T09:58:19.964Z,19.96
2014-09-04T09:59:24.653Z,20.03
2014-09-04T10:00:29.639Z,20.24
2014-09-04T10:01:34.312Z,20.22
2014-09-04T10:02:39.300Z,20.23
2014-09-04T10:03:43.989Z,20.45
2014-09-04T10:04:48.662Z,20.17
2014-09-04T10:05:53.353Z,20.05
2014-09-04T10:06:58.025Z,19.92
2014-09-04T10:08:02.715Z,20.11
2014-09-04T10:09:07.703Z,19.84
2014-09-04T10:10:12.377Z,20.08
2014-09-04T10:11:17.364Z,20.17
2014-09-04T10:12:22.350Z,19.98
2014-09-04T10:13:27.322Z,19.97
2014-09-04T10:14:32.010Z,20.11
2014-09-04T10:15:36.701Z,20.27
2014-09-04T10:16:41.375Z,20
2014-09-04T10:17:46.361Z,19.66
2014-09-04T10:18:49.675Z,19.79
2014-09-04T10:19:54.645Z,19.88
2014-09-04T10:20:59.336Z,19.68
2014-09-04T10:22:04.010Z,19.85
2014-09-04T10:23:08.699Z,20.06
2014-09-04T10:24:13.389Z,20.14
2014-09-04T10:25:18.062Z,20.29
2014-09-04T10:26:23.048Z,20.35
2014-09-04T10:27:27.737Z,20.27
2014-09-04T10:28:32.708Z,20.04
2014-09-04T10:29:37.398Z,19.73
2014-09-04T10:30:42.071Z,19.84
2014-09-04T10:31:46.761Z,20.17
2014-09-04T10:32:51.747Z,20.31
2014-09-04T10:33:56.718Z,20.29
2014-09-04T10:35:01.409Z,20.41
2014-09-04T10:36:06.395Z,20.06
2014-09-04T10:37:11.397Z,19.78
2014-09-04T10:38:16.086Z,20.09
2014-09-04T10:39:20.761Z,20.15
2014-09-04T10:40:25.451Z,19.81
2014-09-04T10:41:30.139Z,20
2014-09-04T10:42:34.814Z,20.23
2014-09-04T10:43:39.504Z,20.06
2014-09-04T10:44:44.193Z,20.06
2014-09-04T10:45:49.179Z,20.18
2014-09-04T10:46:53.852Z,20.02
2014-09-04T10:47:58.542Z,20.28
2014-09-04T10:49:03.513Z,20.1
2014-09-04T10:50:08.501Z,20.08
2014-09-04T10:51:13.191Z,20.27
2014-09-04T10:52:17.880Z,20.4
2014-09-04T10:53:22.850Z,20.38
2014-09-04T10:54:27.836Z,20.41
2014-09-04T10:55:32.526Z,20.22
2014-09-04T10:56:37.496Z,20.39
2014-09-04T10:57:42.483Z,20.37
2014-09-04T10:58:47.469Z,20.38
2014-09-04T10:59:52.145Z,20.35
2014-09-04T11:00:57.130Z,20.26
2014-09-04T11:02:01.821Z,20.56
2014-09-04T11:03:06.494Z,20.48
2014-09-04T11:04:11.183Z,20.56
2014-09-04T11:05:16.155Z,20.2
2014-09-04T11:06:21.140Z,20.29
2014-09-04T11:07:25.830Z,20.3
2014-09-04T11:08:30.504Z,20.43
2014-09-04T11:09:35.193Z,20.38
2014-09-04T11:10:39.867Z,20.33
2014-09-04T11:11:44.854Z,20.28
2014-09-04T11:12:49.637Z,20.45
2014-09-04T11:13:54.623Z,20.59
2014-09-04T11:14:59.297Z,20.6
2014-09-04T11:16:03.989Z,20.13
2014-09-04T11:17:08.661Z,20.06
2014-09-04T11:18:13.351Z,20.28
2014-09-04T11:19:18.026Z,20.27
2014-09-04T11:20:22.715Z,20.34
2014-09-04T11:21:27.702Z,20.5
2014-09-04T11:22:32.391Z,20.56
2014-09-04T11:23:37.066Z,20.19
2014-09-04T11:24:41.755Z,20.37
2014-09-04T11:25:46.428Z,20.45
2014-09-04T11:26:51.119Z,20.64
2014-09-04T11:27:56.090Z,20.57
2014-09-04T11:29:01.076Z,20.68
2014-09-04T11:30:05.766Z,20.78
2014-09-04T11:31:10.438Z,20.33
2014-09-04T11:32:15.425Z,20.05
2014-09-04T11:33:20.411Z,20.24
2014-09-04T11:34:25.101Z,20.19
2014-09-04T11:35:30.072Z,20
2014-09-04T11:36:35.058Z,20.14
2014-09-04T11:37:39.732Z,20.44
2014-09-04T11:38:44.718Z,20.57
2014-09-04T11:39:49.408Z,20.56
2014-09-04T11:40:54.097Z,20.26
2014-09-04T11:41:58.787Z,20.53
2014-09-04T11:43:03.804Z,20.37
2014-09-04T11:44:08.496Z,20.08
2014-09-04T11:45:13.184Z,20.33
2014-09-04T11:46:17.875Z,20.21
2014-09-04T11:47:22.549Z,20.3
2014-09-04T11:48:27.535Z,20.45
2014-09-04T11:49:32.224Z,20.59
2014-09-04T11:50:36.898Z,20.7
2014-09-04T11:51:41.588Z,20.48
2014-09-04T11:52:46.559Z,20.48
2014-09-04T11:53:51.249Z,20.62
2014-09-04T11:54:55.923Z,20.5
2014-09-04T11:56:00.611Z,20.62
2014-09-04T11:57:05.302Z,20.78
2014-09-04T11:58:10.272Z,20.52
2014-09-04T11:59:15.274Z,20.5
2014-09-04T12:00:19.963Z,20.67
2014-09-04T12:01:24.653Z,20.84
2014-09-04T12:02:29.327Z,21.01
2014-09-04T12:03:34.032Z,20.88
2014-09-04T12:04:38.706Z,20.69
2014-09-04T12:05:43.691Z,20.29
2014-09-04T12:06:48.662Z,20.57
2014-09-04T12:07:53.351Z,20.7
2014-09-04T12:08:58.338Z,20.72
2014-09-04T12:10:03.326Z,20.78
2014-09-04T12:11:08.000Z,20.88
2014-09-04T12:12:12.986Z,20.91
2014-09-04T12:13:17.676Z,20.87
2014-09-04T12:14:22.350Z,21.06
2014-09-04T12:15:27.336Z,20.84
2014-09-04T12:16:32.010Z,20.56
2014-09-04T12:17:36.699Z,20.82
2014-09-04T12:18:41.389Z,20.74
2014-09-04T12:19:46.078Z,20.59
2014-09-04T12:20:50.752Z,20.54
2014-09-04T12:21:55.442Z,20.4
2014-09-04T12:23:00.428Z,20.86
2014-09-04T12:24:05.120Z,20.93
2014-09-04T12:25:09.793Z,20.71
2014-09-04T12:26:14.483Z,20.53
2014-09-04T12:27:19.156Z,20.82
2014-09-04T12:28:23.845Z,21.04
2014-09-04T12:29:28.519Z,20.78
2014-09-04T12:30:33.506Z,21.08
2014-09-04T12:31:38.195Z,21.02
2014-09-04T12:32:42.869Z,21.1
2014-09-04T12:33:47.558Z,21.21
2014-09-04T12:34:52.231Z,21.12
2014-09-04T12:35:57.218Z,21.08
2014-09-04T12:37:01.893Z,21.38
2014-09-04T12:38:06.878Z,21
2014-09-04T12:39:11.553Z,21.05
2014-09-04T12:40:16.243Z,21.08
2014-09-04T12:41:20.934Z,21.16
2014-09-04T12:42:25.608Z,21.08
2014-09-04T12:43:30.594Z,20.99
2014-09-04T12:44:35.284Z,21.1
2014-09-04T12:45:39.957Z,21.27
2014-09-04T12:46:44.944Z,21.27
2014-09-04T12:47:49.618Z,21.18
2014-09-04T12:48:54.307Z,21.18
2014-09-04T12:49:58.997Z,21.29
2014-09-04T12:51:03.671Z,21.55
2014-09-04T12:52:08.657Z,21.3
2014-09-04T12:53:13.346Z,21.37
2014-09-04T12:54:18.020Z,21.5
2014-09-04T12:55:22.711Z,21.12
2014-09-04T12:56:27.399Z,21.36
2014-09-04T12:57:32.089Z,21.37
2014-09-04T12:58:36.764Z,21.28
2014-09-04T12:59:41.452Z,21.3
2014-09-04T13:00:45.752Z,21.39
2014-09-04T13:01:50.426Z,21.51
2014-09-04T13:02:55.115Z,21.46
2014-09-04T13:03:59.805Z,21.4
2014-09-04T13:05:04.479Z,21.08
2014-09-04T13:06:09.168Z,21.35
2014-09-04T13:07:13.858Z,21.08
2014-09-04T13:08:18.547Z,21.26
2014-09-04T13:09:23.221Z,21.4
2014-09-04T13:10:27.911Z,21.31
2014-09-04T13:11:32.600Z,21.48
2014-09-04T13:12:37.275Z,21.58
2014-09-04T13:13:42.260Z,21.66
2014-09-04T13:14:46.951Z,21.73
2014-09-04T13:15:51.640Z,21.73
2014-09-04T13:16:56.330Z,21.53
2014-09-04T13:18:01.019Z,21.25
2014-09-04T13:19:05.725Z,21.55
2014-09-04T13:20:10.414Z,21.31
2014-09-04T13:21:15.088Z,21.26
2014-09-04T13:22:20.074Z,21.3
2014-09-04T13:23:24.764Z,21.25
2014-09-04T13:24:29.438Z,21.13
2014-09-04T13:25:34.127Z,21.36
2014-09-04T13:26:38.818Z,21.64
2014-09-04T13:27:43.787Z,21.28
2014-09-04T13:28:48.478Z,21.32
2014-09-04T13:29:53.152Z,21
2014-09-04T13:30:57.840Z,21.32
2014-09-04T13:32:02.828Z,21.47
2014-09-04T13:33:07.798Z,21.47
2014-09-04T13:34:12.488Z,21.53
2014-09-04T13:35:17.177Z,21.56
2014-09-04T13:36:21.851Z,21.39
2014-09-04T13:37:26.541Z,21.6
2014-09-04T13:38:31.230Z,21.56
2014-09-04T13:39:35.529Z,21.7
2014-09-04T13:40:40.204Z,21.48
2014-09-04T13:41:44.893Z,21.68
2014-09-04T13:42:49.880Z,21.69
2014-09-04T13:43:54.554Z,21.74
2014-09-04T13:44:59.539Z,21.6
2014-09-04T13:46:04.230Z,21.75
2014-09-04T13:47:08.918Z,21.79
2014-09-04T13:48:13.609Z,21.67
2014-09-04T13:49:18.283Z,21.77
2014-09-04T13:50:22.972Z,21.82
2014-09-04T13:51:27.662Z,21.79
2014-09-04T13:52:32.351Z,21.84
2014-09-04T13:53:37.619Z,21.91
2014-09-04T13:54:42.622Z,21.75
2014-09-04T13:55:47.295Z,21.85
2014-09-04T13:56:51.985Z,21.75
2014-09-04T13:57:56.674Z,22